Semmes, Alabama
Current Conditions -  °F | °C
As of 9:56 PM on Thursday 27 Nov 2014 (Local Time) from KMOB Reporting Station
Clear Clear  
Wind Chill: 36°   Ceiling: Unl
Heat Index: 40°   Visibility: 10mi
Dew Point: 32°   Wind: 6mph
Humidity: 73%   Direction: 20°NNE
Pressure: 30.45"   Gusts: NA
Location:  30.78°N, 88.26°W
Report Text: KMOB 280356Z 02005KT 10SM CLR 04/00 A3045 RMK AO2 SLP310 T00440000
Loading
Personal Weather Stations






























Interactive Weather Map New forecast layout! Learn more

10-Day Weather Forecast

Advertisements
Track Severe Weather on mobile